Time;durP1;ratioP1;P1;durP2;ratioP2;P2;SDS_P1;SDS_P2;PMS_P1;PMS_P2;Temp;Humidity;BMP_temperature;BMP_pressure;BME280_temperature;BME280_humidity;BME280_pressure;Samples;Min_cycle;Max_cycle;Signal;HPM_P1;HPM_P2
2023/11/22 00:00:46;;;;;;;9.88;5.80;;;;;;;;;;5027811;28;20372;-54
2023/11/22 00:03:12;;;;;;;9.40;5.50;;;;;;;;;;5028046;28;20037;-51
2023/11/22 00:05:38;;;;;;;9.45;5.55;;;;;;;;;;5036668;28;20115;-54
2023/11/22 00:08:04;;;;;;;9.77;5.82;;;;;;;;;;5028384;28;20026;-52
2023/11/22 00:10:30;;;;;;;9.75;6.15;;;;;;;;;;5027556;28;20037;-49
2023/11/22 00:12:58;;;;;;;9.63;5.65;;;;;;;;;;5012448;28;20030;-54
2023/11/22 00:15:25;;;;;;;9.40;5.50;;;;;;;;;;5012385;28;20029;-56
2023/11/22 00:17:52;;;;;;;9.52;5.60;;;;;;;;;;5031031;28;20078;-50
2023/11/22 00:20:18;;;;;;;9.25;5.45;;;;;;;;;;5030506;28;20029;-53
2023/11/22 00:22:45;;;;;;;9.30;5.50;;;;;;;;;;5031121;28;20395;-58
2023/11/22 00:25:13;;;;;;;9.60;5.70;;;;;;;;;;5031128;28;20021;-55
2023/11/22 00:27:39;;;;;;;9.90;5.80;;;;;;;;;;5030939;28;20058;-54
2023/11/22 00:30:05;;;;;;;9.60;5.70;;;;;;;;;;5030519;28;20387;-56
2023/11/22 00:32:31;;;;;;;10.00;5.82;;;;;;;;;;5031214;28;20029;-53
2023/11/22 00:34:57;;;;;;;9.60;5.63;;;;;;;;;;5031270;28;20076;-51
2023/11/22 00:37:24;;;;;;;10.18;6.30;;;;;;;;;;5031285;28;20034;-55
2023/11/22 00:39:50;;;;;;;9.45;5.53;;;;;;;;;;5030442;28;20099;-53
2023/11/22 00:42:20;;;;;;;9.30;5.50;;;;;;;;;;5030143;28;20123;-54
2023/11/22 00:44:47;;;;;;;11.23;7.82;;;;;;;;;;5031268;28;20017;-55
2023/11/22 00:47:13;;;;;;;9.65;5.70;;;;;;;;;;5031221;28;20032;-53
2023/11/22 00:49:39;;;;;;;9.35;5.55;;;;;;;;;;5031180;28;20029;-51
2023/11/22 00:52:07;;;;;;;9.50;5.60;;;;;;;;;;5030815;28;20032;-56
2023/11/22 00:54:32;;;;;;;9.52;5.57;;;;;;;;;;5031260;28;20030;-55
2023/11/22 00:56:59;;;;;;;9.43;5.57;;;;;;;;;;5031037;28;20040;-53
2023/11/22 00:59:26;;;;;;;9.70;5.70;;;;;;;;;;5030806;28;20079;-51
2023/11/22 01:01:52;;;;;;;9.65;5.70;;;;;;;;;;5012614;28;20438;-55
2023/11/22 01:04:18;;;;;;;9.68;5.68;;;;;;;;;;5019609;28;20060;-51
2023/11/22 01:06:44;;;;;;;9.32;5.50;;;;;;;;;;5033276;28;20025;-55
2023/11/22 01:09:13;;;;;;;9.25;5.45;;;;;;;;;;5050700;28;20496;-51
2023/11/22 01:11:39;;;;;;;9.05;5.38;;;;;;;;;;5034467;28;20445;-53
2023/11/22 01:14:05;;;;;;;9.00;5.30;;;;;;;;;;5052007;28;20128;-51
2023/11/22 01:16:32;;;;;;;8.93;5.30;;;;;;;;;;5033187;28;20115;-50
2023/11/22 01:18:58;;;;;;;9.10;5.30;;;;;;;;;;5032676;28;20039;-56
2023/11/22 01:21:25;;;;;;;9.20;5.40;;;;;;;;;;5046772;28;20033;-53
2023/11/22 01:23:51;;;;;;;9.40;5.57;;;;;;;;;;5012779;28;20095;-54
2023/11/22 01:26:17;;;;;;;9.43;5.57;;;;;;;;;;5048913;28;20076;-52
2023/11/22 01:28:44;;;;;;;9.23;5.50;;;;;;;;;;5050585;28;20488;-54
2023/11/22 01:31:12;;;;;;;9.00;5.30;;;;;;;;;;5031958;28;20380;-53
2023/11/22 01:33:38;;;;;;;9.15;5.40;;;;;;;;;;5050256;28;20036;-49
2023/11/22 01:36:04;;;;;;;9.80;5.80;;;;;;;;;;5050466;28;20025;-54
2023/11/22 01:38:30;;;;;;;9.90;6.10;;;;;;;;;;5032589;28;20529;-53
2023/11/22 01:40:55;;;;;;;9.07;5.38;;;;;;;;;;5049550;28;20025;-54
2023/11/22 01:43:23;;;;;;;9.48;5.57;;;;;;;;;;5050183;28;20021;-54
2023/11/22 01:45:49;;;;;;;9.40;5.60;;;;;;;;;;5050334;28;20013;-52
2023/11/22 01:48:15;;;;;;;9.60;5.70;;;;;;;;;;5050346;28;20267;-57
2023/11/22 01:50:43;;;;;;;9.68;5.70;;;;;;;;;;5049584;28;20021;-55
2023/11/22 01:53:11;;;;;;;9.48;5.53;;;;;;;;;;5049836;28;20104;-53
2023/11/22 01:55:37;;;;;;;9.02;5.38;;;;;;;;;;5050231;28;20082;-53
2023/11/22 01:58:03;;;;;;;9.43;5.60;;;;;;;;;;5050158;28;20052;-52
2023/11/22 02:00:32;;;;;;;10.20;6.25;;;;;;;;;;5049130;28;20078;-52
2023/11/22 02:03:00;;;;;;;9.13;5.45;;;;;;;;;;5049755;28;20029;-51
2023/11/22 02:05:26;;;;;;;9.30;5.50;;;;;;;;;;5032421;28;20533;-52
2023/11/22 02:07:52;;;;;;;9.63;5.65;;;;;;;;;;5050021;28;20013;-51
2023/11/22 02:10:18;;;;;;;9.55;5.60;;;;;;;;;;5049209;28;20451;-53
2023/11/22 02:12:44;;;;;;;9.90;5.80;;;;;;;;;;5049856;28;20021;-53
2023/11/22 02:15:11;;;;;;;9.20;5.45;;;;;;;;;;5049920;28;20471;-50
2023/11/22 02:17:37;;;;;;;9.32;5.55;;;;;;;;;;5050179;28;20029;-55
2023/11/22 02:20:06;;;;;;;9.07;5.38;;;;;;;;;;5049330;28;20467;-56
2023/11/22 02:22:32;;;;;;;9.10;5.38;;;;;;;;;;5050040;28;20017;-53
2023/11/22 02:24:58;;;;;;;9.00;5.30;;;;;;;;;;5032257;28;20019;-53
2023/11/22 02:27:25;;;;;;;10.00;6.28;;;;;;;;;;5048923;28;20135;-55
2023/11/22 02:29:51;;;;;;;9.27;5.47;;;;;;;;;;5049142;28;20024;-52
2023/11/22 02:32:18;;;;;;;9.40;5.50;;;;;;;;;;5049976;28;20017;-53
2023/11/22 02:34:45;;;;;;;10.07;6.47;;;;;;;;;;5032488;28;20497;-52
2023/11/22 02:37:11;;;;;;;9.60;5.70;;;;;;;;;;5050017;28;20017;-52
2023/11/22 02:39:45;;;;;;;9.57;5.60;;;;;;;;;;5049914;28;20023;-51
2023/11/22 02:42:11;;;;;;;10.25;6.65;;;;;;;;;;5049910;28;20017;-55
2023/11/22 02:44:37;;;;;;;9.98;6.22;;;;;;;;;;5032375;28;20101;-53
2023/11/22 02:47:04;;;;;;;10.15;6.00;;;;;;;;;;5050045;28;20127;-53
2023/11/22 02:49:30;;;;;;;9.45;5.57;;;;;;;;;;5049626;28;20109;-52
2023/11/22 02:51:56;;;;;;;10.90;6.05;;;;;;;;;;5049728;28;20056;-58
2023/11/22 02:54:22;;;;;;;9.35;5.50;;;;;;;;;;5049990;28;20120;-55
2023/11/22 02:56:48;;;;;;;9.10;5.38;;;;;;;;;;5032089;28;20060;-51
2023/11/22 02:59:14;;;;;;;9.05;5.30;;;;;;;;;;5049790;28;20051;-54
2023/11/22 03:01:42;;;;;;;9.35;5.50;;;;;;;;;;5031829;28;20017;-52
2023/11/22 03:04:08;;;;;;;;;;;;;;;;;;5050236;28;20087;-56
2023/11/22 03:06:36;;;;;;;9.60;5.60;;;;;;;;;;5053509;28;19988;-57
2023/11/22 03:09:02;;;;;;;9.68;5.68;;;;;;;;;;5053181;28;20032;-52
2023/11/22 03:11:28;;;;;;;9.70;5.60;;;;;;;;;;5052723;28;20048;-50
2023/11/22 03:13:54;;;;;;;9.05;5.32;;;;;;;;;;5035218;28;20063;-53
2023/11/22 03:16:20;;;;;;;9.68;5.70;;;;;;;;;;5053234;28;20040;-50
2023/11/22 03:18:46;;;;;;;9.88;5.80;;;;;;;;;;5053175;28;20079;-54
2023/11/22 03:21:12;;;;;;;9.60;5.60;;;;;;;;;;5052515;28;20039;-52
2023/11/22 03:23:40;;;;;;;10.10;5.93;;;;;;;;;;5053277;28;20017;-51
2023/11/22 03:26:06;;;;;;;10.25;5.95;;;;;;;;;;5052590;28;20150;-51
2023/11/22 03:28:33;;;;;;;11.77;6.88;;;;;;;;;;5053446;28;20047;-53
2023/11/22 03:30:59;;;;;;;10.20;5.95;;;;;;;;;;5052509;28;20036;-51
2023/11/22 03:33:26;;;;;;;9.70;5.70;;;;;;;;;;5053196;28;20033;-53
2023/11/22 03:35:52;;;;;;;10.02;5.90;;;;;;;;;;5053038;28;20107;-55
2023/11/22 03:38:18;;;;;;;9.95;5.85;;;;;;;;;;5053095;28;20151;-50
2023/11/22 03:40:45;;;;;;;9.75;5.75;;;;;;;;;;5052057;28;20509;-54
2023/11/22 03:43:12;;;;;;;9.93;5.80;;;;;;;;;;5053235;28;20079;-53
2023/11/22 03:45:38;;;;;;;9.75;5.70;;;;;;;;;;5053162;28;20066;-52
2023/11/22 03:48:04;;;;;;;9.90;5.80;;;;;;;;;;5053023;28;20036;-53
2023/11/22 03:50:30;;;;;;;9.60;5.60;;;;;;;;;;5052247;28;20013;-54
2023/11/22 03:52:56;;;;;;;9.63;5.65;;;;;;;;;;5052646;28;20369;-50
2023/11/22 03:55:22;;;;;;;9.50;5.60;;;;;;;;;;5052674;28;20025;-53
2023/11/22 03:57:48;;;;;;;9.73;5.70;;;;;;;;;;5052484;28;20092;-52
2023/11/22 04:00:15;;;;;;;8.82;5.20;;;;;;;;;;5051550;28;20170;-53
2023/11/22 04:02:41;;;;;;;9.25;5.47;;;;;;;;;;5052174;28;20039;-50
2023/11/22 04:05:07;;;;;;;9.45;5.60;;;;;;;;;;5052591;28;20009;-49
2023/11/22 04:07:33;;;;;;;9.40;5.55;;;;;;;;;;5052371;28;20562;-52
2023/11/22 04:09:59;;;;;;;9.45;5.60;;;;;;;;;;5051823;28;20075;-49
2023/11/22 04:12:25;;;;;;;9.50;5.60;;;;;;;;;;5052209;28;20037;-51
2023/11/22 04:14:51;;;;;;;9.70;5.70;;;;;;;;;;5052285;28;20092;-51
2023/11/22 04:17:18;;;;;;;9.70;5.70;;;;;;;;;;5050843;28;20095;-51
2023/11/22 04:19:44;;;;;;;9.50;5.60;;;;;;;;;;5051403;28;20017;-54
2023/11/22 04:22:10;;;;;;;9.60;5.70;;;;;;;;;;5051903;28;20025;-51
2023/11/22 04:24:37;;;;;;;9.50;5.57;;;;;;;;;;5052056;28;20013;-53
2023/11/22 04:27:03;;;;;;;10.05;6.20;;;;;;;;;;5050834;28;20356;-52
2023/11/22 04:29:29;;;;;;;8.70;5.15;;;;;;;;;;5051632;28;20100;-50
2023/11/22 04:31:55;;;;;;;9.05;5.38;;;;;;;;;;5033382;28;20024;-52
2023/11/22 04:34:21;;;;;;;9.30;5.50;;;;;;;;;;5051846;28;20606;-55
2023/11/22 04:36:47;;;;;;;9.30;5.50;;;;;;;;;;5051705;28;20098;-50
2023/11/22 04:39:13;;;;;;;8.73;5.20;;;;;;;;;;5051097;28;20021;-52
2023/11/22 04:41:39;;;;;;;8.60;5.10;;;;;;;;;;5050858;28;20370;-56
2023/11/22 04:44:06;;;;;;;8.30;4.90;;;;;;;;;;5051357;28;20021;-54
2023/11/22 04:46:32;;;;;;;8.30;4.90;;;;;;;;;;5051274;28;20040;-47
2023/11/22 04:48:59;;;;;;;8.07;4.80;;;;;;;;;;5051090;28;20420;-53
2023/11/22 04:51:25;;;;;;;7.82;4.60;;;;;;;;;;5050611;28;20029;-51
2023/11/22 04:53:51;;;;;;;7.97;4.70;;;;;;;;;;5033390;28;20028;-54
2023/11/22 04:56:17;;;;;;;7.38;4.40;;;;;;;;;;5051243;28;20028;-51
2023/11/22 04:58:43;;;;;;;7.88;4.72;;;;;;;;;;5050972;28;20024;-54
2023/11/22 05:01:09;;;;;;;7.45;4.40;;;;;;;;;;5050331;28;20151;-51
2023/11/22 05:03:37;;;;;;;7.60;4.50;;;;;;;;;;5051049;28;20029;-54
2023/11/22 05:06:03;;;;;;;7.70;4.60;;;;;;;;;;5051018;28;20485;-51
2023/11/22 05:08:29;;;;;;;7.45;4.38;;;;;;;;;;5051285;28;20024;-53
2023/11/22 05:10:56;;;;;;;7.10;4.25;;;;;;;;;;5050085;28;20100;-51
2023/11/22 05:13:22;;;;;;;7.45;4.45;;;;;;;;;;5050814;28;20107;-52
2023/11/22 05:15:48;;;;;;;7.30;4.40;;;;;;;;;;5051179;28;20021;-53
2023/11/22 05:18:14;;;;;;;7.50;4.50;;;;;;;;;;5050727;28;20112;-54
2023/11/22 05:20:40;;;;;;;7.43;4.47;;;;;;;;;;5050111;28;20100;-54
2023/11/22 05:23:06;;;;;;;7.47;4.45;;;;;;;;;;5050857;28;20481;-51
2023/11/22 05:25:32;;;;;;;7.35;4.40;;;;;;;;;;5049778;28;20480;-52
2023/11/22 05:27:58;;;;;;;7.30;4.38;;;;;;;;;;5049982;28;20025;-55
2023/11/22 05:30:24;;;;;;;8.13;4.93;;;;;;;;;;5049611;28;20017;-52
2023/11/22 05:32:52;;;;;;;7.93;5.13;;;;;;;;;;5049930;28;20021;-51
2023/11/22 05:35:19;;;;;;;7.00;4.18;;;;;;;;;;5050375;28;20443;-51
2023/11/22 05:37:46;;;;;;;7.18;4.30;;;;;;;;;;5032573;28;20009;-52
2023/11/22 05:40:12;;;;;;;7.22;4.30;;;;;;;;;;5049621;28;20017;-53
2023/11/22 05:42:38;;;;;;;8.70;5.45;;;;;;;;;;5049894;28;20025;-52
2023/11/22 05:45:05;;;;;;;7.88;4.68;;;;;;;;;;5050020;28;20100;-50
2023/11/22 05:47:31;;;;;;;8.00;4.70;;;;;;;;;;5050079;28;20013;-51
2023/11/22 05:49:57;;;;;;;8.23;4.82;;;;;;;;;;5049684;28;20191;-51
2023/11/22 05:52:23;;;;;;;7.80;4.68;;;;;;;;;;5050459;28;20054;-54
2023/11/22 05:54:49;;;;;;;7.57;4.50;;;;;;;;;;5049825;28;20020;-51
2023/11/22 05:57:15;;;;;;;8.50;5.00;;;;;;;;;;5032282;28;20025;-57
2023/11/22 05:59:41;;;;;;;8.40;5.00;;;;;;;;;;5049809;28;20072;-51
2023/11/22 06:02:08;;;;;;;8.15;4.80;;;;;;;;;;5031634;28;20021;-49
2023/11/22 06:04:34;;;;;;;8.38;4.97;;;;;;;;;;5050117;28;20104;-50
2023/11/22 06:07:00;;;;;;;8.40;5.00;;;;;;;;;;5050120;28;20530;-50
2023/11/22 06:09:26;;;;;;;8.15;4.80;;;;;;;;;;5049937;28;20023;-51
2023/11/22 06:11:54;;;;;;;8.10;4.80;;;;;;;;;;5049727;28;20347;-51
2023/11/22 06:14:20;;;;;;;7.93;4.70;;;;;;;;;;5050606;28;20021;-51
2023/11/22 06:16:46;;;;;;;8.30;4.90;;;;;;;;;;5032362;28;20098;-51
2023/11/22 06:19:13;;;;;;;8.00;4.75;;;;;;;;;;5050003;28;20554;-49
2023/11/22 06:21:39;;;;;;;8.35;4.93;;;;;;;;;;5049273;28;20051;-50
2023/11/22 06:24:08;;;;;;;7.85;4.63;;;;;;;;;;5049776;28;20022;-52
2023/11/22 06:26:34;;;;;;;7.97;4.72;;;;;;;;;;5049206;28;20009;-49
2023/11/22 06:29:00;;;;;;;7.78;4.60;;;;;;;;;;5031936;28;20044;-48
2023/11/22 06:31:27;;;;;;;7.90;4.70;;;;;;;;;;5049055;28;20017;-49
2023/11/22 06:33:53;;;;;;;7.60;4.50;;;;;;;;;;5049814;28;20025;-48
2023/11/22 06:36:19;;;;;;;7.60;4.50;;;;;;;;;;5049587;28;20032;-53
2023/11/22 06:38:46;;;;;;;7.90;4.65;;;;;;;;;;5031441;28;20020;-52
2023/11/22 06:41:12;;;;;;;7.60;4.50;;;;;;;;;;5033891;28;20028;-53
2023/11/22 06:43:38;;;;;;;7.97;4.70;;;;;;;;;;5053173;28;20021;-52
2023/11/22 06:46:05;;;;;;;7.80;4.70;;;;;;;;;;5053589;28;20028;-53
2023/11/22 06:48:32;;;;;;;7.65;4.60;;;;;;;;;;5053393;28;20055;-51
2023/11/22 06:50:58;;;;;;;7.60;4.50;;;;;;;;;;5052450;28;20037;-56
2023/11/22 06:53:25;;;;;;;7.22;4.30;;;;;;;;;;5053006;28;20069;-55
2023/11/22 06:55:52;;;;;;;6.80;4.00;;;;;;;;;;5053094;28;20100;-53
2023/11/22 06:58:19;;;;;;;6.82;4.10;;;;;;;;;;5053291;28;20025;-51
2023/11/22 07:00:45;;;;;;;7.00;4.20;;;;;;;;;;5052671;28;20141;-53
2023/11/22 07:03:12;;;;;;;7.20;4.30;;;;;;;;;;5052827;28;20029;-52
2023/11/22 07:05:38;;;;;;;7.68;4.85;;;;;;;;;;5052971;28;20540;-51
2023/11/22 07:08:04;;;;;;;7.20;4.30;;;;;;;;;;5035290;28;20428;-54
2023/11/22 07:10:33;;;;;;;7.53;4.50;;;;;;;;;;5052488;28;20057;-53
2023/11/22 07:13:01;;;;;;;7.20;4.28;;;;;;;;;;5052735;28;20059;-53
2023/11/22 07:15:27;;;;;;;7.50;4.50;;;;;;;;;;5052721;28;20434;-55
2023/11/22 07:17:54;;;;;;;7.40;4.40;;;;;;;;;;5034771;28;20017;-52
2023/11/22 07:20:20;;;;;;;8.00;4.70;;;;;;;;;;5033957;28;20395;-52
2023/11/22 07:22:46;;;;;;;7.65;4.53;;;;;;;;;;5051933;28;20171;-51
2023/11/22 07:25:17;;;;;;;7.65;4.60;;;;;;;;;;5051747;28;20024;-48
2023/11/22 07:27:45;;;;;;;7.90;4.70;;;;;;;;;;5052100;28;20027;-51
2023/11/22 07:30:13;;;;;;;8.13;4.80;;;;;;;;;;5034335;28;20029;-52
2023/11/22 07:32:39;;;;;;;8.00;4.80;;;;;;;;;;5052659;28;20028;-51
2023/11/22 07:35:08;;;;;;;8.65;5.10;;;;;;;;;;5052461;28;20029;-52
2023/11/22 07:37:35;;;;;;;;;;;;;;;;;;5053077;28;20041;-52
2023/11/22 07:40:03;;;;;;;8.38;4.95;;;;;;;;;;5052421;28;20344;-55
2023/11/22 07:42:29;;;;;;;7.85;4.70;;;;;;;;;;5052728;28;20041;-52
2023/11/22 07:44:56;;;;;;;7.80;4.63;;;;;;;;;;5052840;28;20048;-51
2023/11/22 07:47:24;;;;;;;8.80;5.45;;;;;;;;;;5052600;28;20041;-55
2023/11/22 07:49:50;;;;;;;8.30;4.90;;;;;;;;;;5051541;28;20399;-53
2023/11/22 07:52:16;;;;;;;8.45;5.00;;;;;;;;;;5051862;28;20037;-50
2023/11/22 07:54:42;;;;;;;8.55;5.03;;;;;;;;;;5047905;28;20025;-52
2023/11/22 07:57:08;;;;;;;8.30;4.90;;;;;;;;;;5030348;28;20104;-54
2023/11/22 07:59:34;;;;;;;10.23;5.60;;;;;;;;;;5014163;28;20080;-55
2023/11/22 08:02:01;;;;;;;8.50;5.03;;;;;;;;;;5031275;28;21024;-54
2023/11/22 08:04:32;;;;;;;8.68;5.10;;;;;;;;;;5031583;28;20032;-55
2023/11/22 08:06:58;;;;;;;9.25;5.47;;;;;;;;;;5032046;28;20048;-51
2023/11/22 08:09:24;;;;;;;9.35;5.55;;;;;;;;;;5031254;28;20093;-54
2023/11/22 08:11:51;;;;;;;10.07;6.10;;;;;;;;;;5031366;28;20041;-53
2023/11/22 08:14:17;;;;;;;9.73;5.70;;;;;;;;;;5031606;28;20030;-51
2023/11/22 08:16:45;;;;;;;10.30;6.03;;;;;;;;;;5031299;28;20029;-51
2023/11/22 08:19:11;;;;;;;10.18;5.97;;;;;;;;;;5031535;28;20033;-53
2023/11/22 08:21:38;;;;;;;10.13;5.93;;;;;;;;;;5030979;28;20183;-52
2023/11/22 08:24:04;;;;;;;10.63;6.20;;;;;;;;;;5031532;28;20533;-53
2023/11/22 08:26:31;;;;;;;10.85;6.35;;;;;;;;;;5012723;28;20052;-54
2023/11/22 08:28:57;;;;;;;11.18;6.55;;;;;;;;;;5028500;28;20022;-52
2023/11/22 08:31:23;;;;;;;11.45;6.70;;;;;;;;;;5010914;28;20131;-52
2023/11/22 08:33:48;;;;;;;11.25;6.55;;;;;;;;;;4993770;28;20088;-56
2023/11/22 08:36:15;;;;;;;11.23;6.53;;;;;;;;;;5011416;28;20041;-55
2023/11/22 08:38:42;;;;;;;11.40;6.70;;;;;;;;;;5011466;28;20025;-52
2023/11/22 08:41:13;;;;;;;10.68;6.20;;;;;;;;;;5011086;28;20018;-50
2023/11/22 08:43:39;;;;;;;11.52;6.72;;;;;;;;;;5011599;28;20488;-54
2023/11/22 08:46:06;;;;;;;11.77;6.90;;;;;;;;;;5011096;28;20041;-53
2023/11/22 08:48:32;;;;;;;11.88;6.90;;;;;;;;;;4993693;28;20041;-48
2023/11/22 08:50:58;;;;;;;11.50;6.70;;;;;;;;;;5010818;28;20117;-51
2023/11/22 08:53:24;;;;;;;12.00;7.00;;;;;;;;;;5011161;28;20075;-49
2023/11/22 08:55:52;;;;;;;11.95;6.95;;;;;;;;;;5018058;28;20082;-51
2023/11/22 08:58:18;;;;;;;12.60;7.38;;;;;;;;;;5013268;28;20031;-52
2023/11/22 09:00:45;;;;;;;11.65;6.93;;;;;;;;;;5030161;28;20021;-50
2023/11/22 09:03:12;;;;;;;12.40;7.20;;;;;;;;;;5029886;28;20030;-56
2023/11/22 09:05:42;;;;;;;11.48;6.75;;;;;;;;;;5013169;28;20044;-50
2023/11/22 09:08:13;;;;;;;12.00;7.20;;;;;;;;;;5030699;28;20172;-52
2023/11/22 09:10:39;;;;;;;12.23;7.13;;;;;;;;;;5030269;28;20633;-52
2023/11/22 09:13:05;;;;;;;12.82;7.50;;;;;;;;;;5012105;28;20143;-52
2023/11/22 09:15:33;;;;;;;13.38;8.10;;;;;;;;;;5012787;28;20095;-47
2023/11/22 09:18:00;;;;;;;13.00;7.60;;;;;;;;;;5030000;28;20021;-56
2023/11/22 09:20:26;;;;;;;13.30;8.00;;;;;;;;;;5029727;28;20109;-53
2023/11/22 09:22:55;;;;;;;13.13;7.70;;;;;;;;;;5012594;28;20025;-51
2023/11/22 09:25:22;;;;;;;13.55;8.25;;;;;;;;;;5030326;28;20035;-50
2023/11/22 09:27:51;;;;;;;13.57;8.38;;;;;;;;;;5030433;28;20218;-52
2023/11/22 09:30:19;;;;;;;17.10;8.82;;;;;;;;;;5011630;28;20353;-53
2023/11/22 09:32:48;;;;;;;;;;;;;;;;;;5029981;28;20092;-50
2023/11/22 09:35:15;;;;;;;13.40;8.07;;;;;;;;;;5012009;28;20268;-52
2023/11/22 09:37:42;;;;;;;35.25;14.45;;;;;;;;;;5029801;28;20582;-50
2023/11/22 09:40:09;;;;;;;13.38;8.00;;;;;;;;;;5029590;28;20025;-51
2023/11/22 09:42:35;;;;;;;13.25;7.97;;;;;;;;;;5030567;28;20025;-48
2023/11/22 09:45:01;;;;;;;13.50;8.30;;;;;;;;;;5030590;28;20104;-49
2023/11/22 09:47:29;;;;;;;13.38;8.10;;;;;;;;;;5012660;28;20116;-49
2023/11/22 09:49:57;;;;;;;13.47;8.13;;;;;;;;;;5029654;28;20018;-47
2023/11/22 09:52:23;;;;;;;13.20;7.93;;;;;;;;;;5030313;28;20352;-51
2023/11/22 09:54:50;;;;;;;13.25;8.02;;;;;;;;;;5031808;28;20395;-50
2023/11/22 09:57:18;;;;;;;13.70;8.70;;;;;;;;;;5013666;28;20025;-45
2023/11/22 09:59:45;;;;;;;13.60;8.50;;;;;;;;;;5031032;28;20032;-49
2023/11/22 10:02:11;;;;;;;13.73;8.90;;;;;;;;;;5032338;28;20079;-53
2023/11/22 10:04:38;;;;;;;13.55;8.70;;;;;;;;;;5032893;28;20018;-53
2023/11/22 10:07:04;;;;;;;13.50;8.48;;;;;;;;;;5033543;28;20396;-53
2023/11/22 10:09:30;;;;;;;13.68;8.88;;;;;;;;;;5031890;28;20137;-53
2023/11/22 10:12:02;;;;;;;13.50;8.30;;;;;;;;;;5012956;28;20467;-52
2023/11/22 10:14:28;;;;;;;13.52;8.70;;;;;;;;;;5015127;28;20045;-50
2023/11/22 10:17:01;;;;;;;13.68;8.90;;;;;;;;;;5034334;28;20069;-50
2023/11/22 10:19:31;;;;;;;13.52;8.50;;;;;;;;;;5034139;28;20026;-49
2023/11/22 10:22:17;;;;;;;13.63;8.77;;;;;;;;;;5015824;28;20087;-52
2023/11/22 10:24:46;;;;;;;13.70;9.00;;;;;;;;;;5034755;28;20510;-52
2023/11/22 10:27:12;;;;;;;13.65;8.80;;;;;;;;;;5035571;28;20017;-52
2023/11/22 10:29:38;;;;;;;13.70;8.80;;;;;;;;;;5035616;28;20479;-49
2023/11/22 10:32:07;;;;;;;15.85;9.45;;;;;;;;;;5018241;28;20025;-49
2023/11/22 10:34:33;;;;;;;13.77;9.18;;;;;;;;;;5034196;28;20052;-52
2023/11/22 10:36:59;;;;;;;13.65;8.80;;;;;;;;;;5034201;28;20045;-48
2023/11/22 10:39:26;;;;;;;13.70;9.00;;;;;;;;;;5033838;28;20112;-54
2023/11/22 10:41:52;;;;;;;15.45;10.75;;;;;;;;;;5015409;28;20032;-52
2023/11/22 10:44:21;;;;;;;13.70;9.05;;;;;;;;;;5033336;28;20028;-51
2023/11/22 10:46:48;;;;;;;13.75;9.18;;;;;;;;;;5033969;28;20022;-51
2023/11/22 10:49:14;;;;;;;13.73;9.00;;;;;;;;;;5033234;28;20257;-54
2023/11/22 10:51:41;;;;;;;13.65;8.80;;;;;;;;;;5032765;28;20040;-51
2023/11/22 10:54:09;;;;;;;13.60;8.73;;;;;;;;;;5033405;28;20049;-52
2023/11/22 10:56:41;;;;;;;13.77;9.00;;;;;;;;;;5033477;28;20018;-50
2023/11/22 10:59:10;;;;;;;13.65;8.88;;;;;;;;;;5033302;28;20028;-52
2023/11/22 11:01:37;;;;;;;13.73;9.10;;;;;;;;;;5032563;28;20033;-53
2023/11/22 11:04:06;;;;;;;13.75;9.13;;;;;;;;;;5032856;28;20133;-51
2023/11/22 11:06:33;;;;;;;13.80;9.30;;;;;;;;;;5032372;28;20022;-51
2023/11/22 11:09:08;;;;;;;13.82;9.35;;;;;;;;;;5032760;28;20387;-55
2023/11/22 11:11:35;;;;;;;13.68;8.98;;;;;;;;;;5032467;28;20029;-52
2023/11/22 11:14:03;;;;;;;13.65;9.05;;;;;;;;;;5033207;28;20033;-51
2023/11/22 11:16:31;;;;;;;13.65;8.88;;;;;;;;;;5032900;28;20030;-48
2023/11/22 11:18:57;;;;;;;13.73;9.10;;;;;;;;;;5015156;28;20021;-50
2023/11/22 11:21:24;;;;;;;13.68;8.90;;;;;;;;;;5014033;28;20394;-55
2023/11/22 11:23:54;;;;;;;13.63;8.88;;;;;;;;;;5032549;28;20025;-51
2023/11/22 11:26:21;;;;;;;13.52;8.57;;;;;;;;;;5032241;28;20025;-53
2023/11/22 11:28:49;;;;;;;13.75;9.10;;;;;;;;;;5032768;28;20484;-56
2023/11/22 11:31:16;;;;;;;13.95;9.05;;;;;;;;;;5032134;28;20045;-52
2023/11/22 11:34:00;;;;;;;13.75;9.18;;;;;;;;;;5032599;28;20026;-48
2023/11/22 11:36:27;;;;;;;13.70;8.88;;;;;;;;;;5014781;28;20036;-52
2023/11/22 11:38:54;;;;;;;13.82;9.25;;;;;;;;;;5032294;28;20106;-52
2023/11/22 11:41:24;;;;;;;13.77;9.00;;;;;;;;;;5031369;28;20025;-52
2023/11/22 11:43:50;;;;;;;13.88;9.35;;;;;;;;;;5031929;28;20172;-48
2023/11/22 11:46:17;;;;;;;14.00;9.70;;;;;;;;;;5031746;28;20112;-54
2023/11/22 11:48:53;;;;;;;13.85;9.43;;;;;;;;;;5031898;28;20022;-50
2023/11/22 11:51:19;;;;;;;13.90;9.50;;;;;;;;;;5030682;28;20028;-50
2023/11/22 11:53:46;;;;;;;13.90;9.45;;;;;;;;;;5031346;28;20029;-50
2023/11/22 11:56:12;;;;;;;13.80;9.30;;;;;;;;;;5031427;28;20025;-54
2023/11/22 11:58:38;;;;;;;13.88;9.50;;;;;;;;;;5010938;28;20065;-51
2023/11/22 12:01:06;;;;;;;14.20;9.70;;;;;;;;;;5011610;28;20100;-56
2023/11/22 12:03:33;;;;;;;14.07;9.80;;;;;;;;;;5011505;28;20038;-51
2023/11/22 12:05:59;;;;;;;14.05;9.95;;;;;;;;;;5011895;28;20056;-52
2023/11/22 12:08:25;;;;;;;14.10;9.95;;;;;;;;;;5011609;28;20026;-52
2023/11/22 12:10:51;;;;;;;14.05;9.90;;;;;;;;;;5011063;28;20096;-55
2023/11/22 12:13:18;;;;;;;14.15;10.15;;;;;;;;;;5011723;28;20030;-52
2023/11/22 12:15:44;;;;;;;14.00;9.80;;;;;;;;;;5012371;28;20051;-52
2023/11/22 12:18:11;;;;;;;14.20;10.20;;;;;;;;;;5011366;28;20025;-49
2023/11/22 12:20:38;;;;;;;14.13;10.02;;;;;;;;;;5010856;28;20026;-52
2023/11/22 12:23:04;;;;;;;14.57;10.13;;;;;;;;;;5011530;28;20105;-49
2023/11/22 12:25:31;;;;;;;14.13;10.10;;;;;;;;;;5012949;28;20029;-47
2023/11/22 12:27:57;;;;;;;14.30;10.45;;;;;;;;;;5028418;28;20399;-53
2023/11/22 12:30:30;;;;;;;14.32;10.50;;;;;;;;;;5028236;28;20490;-57
2023/11/22 12:32:56;;;;;;;14.25;10.50;;;;;;;;;;5027696;28;20029;-51
2023/11/22 12:35:24;;;;;;;14.25;10.48;;;;;;;;;;5030798;28;20399;-55
2023/11/22 12:37:50;;;;;;;14.50;11.02;;;;;;;;;;5011907;28;20212;-49
2023/11/22 12:40:17;;;;;;;14.50;10.77;;;;;;;;;;5027077;28;20025;-54
2023/11/22 12:42:50;;;;;;;14.38;10.70;;;;;;;;;;5030534;28;20022;-56
2023/11/22 12:45:23;;;;;;;14.50;11.10;;;;;;;;;;5031278;28;20066;-52
2023/11/22 12:47:50;;;;;;;14.40;10.80;;;;;;;;;;5031000;28;20051;-53
2023/11/22 12:50:41;;;;;;;14.45;10.82;;;;;;;;;;5030214;28;20080;-50
2023/11/22 12:53:13;;;;;;;14.50;10.90;;;;;;;;;;5030637;28;20139;-48
2023/11/22 12:55:43;;;;;;;14.50;11.00;;;;;;;;;;5030690;28;20052;-52
2023/11/22 12:58:09;;;;;;;14.30;10.43;;;;;;;;;;5030597;28;20026;-49
2023/11/22 13:00:35;;;;;;;14.25;10.45;;;;;;;;;;5029802;28;20112;-49
2023/11/22 13:03:01;;;;;;;14.30;10.50;;;;;;;;;;5030500;28;20025;-51
2023/11/22 13:05:27;;;;;;;14.20;10.25;;;;;;;;;;5030327;28;20033;-48
2023/11/22 13:07:53;;;;;;;14.27;10.65;;;;;;;;;;5030318;28;20056;-53
2023/11/22 13:10:24;;;;;;;14.48;11.10;;;;;;;;;;5029706;28;20037;-47
2023/11/22 13:12:51;;;;;;;14.85;10.82;;;;;;;;;;5030516;28;20018;-51
2023/11/22 13:15:17;;;;;;;16.92;11.48;;;;;;;;;;5012643;28;20025;-51
2023/11/22 13:17:43;;;;;;;14.40;10.80;;;;;;;;;;5030399;28;20025;-49
2023/11/22 13:20:15;;;;;;;14.20;10.30;;;;;;;;;;5029781;28;20025;-51
2023/11/22 13:22:46;;;;;;;14.30;10.30;;;;;;;;;;5012729;28;20028;-53
2023/11/22 13:25:19;;;;;;;14.30;10.55;;;;;;;;;;5030390;28;20014;-50
2023/11/22 13:27:46;;;;;;;15.15;11.27;;;;;;;;;;5029718;28;20079;-52
2023/11/22 13:30:14;;;;;;;15.27;10.90;;;;;;;;;;5029226;28;20032;-52
2023/11/22 13:32:42;;;;;;;14.07;9.95;;;;;;;;;;5029849;28;20503;-49
2023/11/22 13:35:14;;;;;;;14.05;9.93;;;;;;;;;;5012562;28;20083;-49
2023/11/22 13:37:43;;;;;;;14.00;9.90;;;;;;;;;;5030681;28;20568;-52
2023/11/22 13:40:16;;;;;;;14.10;10.18;;;;;;;;;;5029340;28;20075;-50
2023/11/22 13:42:45;;;;;;;13.95;9.65;;;;;;;;;;5029808;28;20025;-49
2023/11/22 13:45:16;;;;;;;13.93;9.52;;;;;;;;;;5029529;28;20021;-48
2023/11/22 13:47:44;;;;;;;13.77;9.23;;;;;;;;;;5012292;28;20033;-51
2023/11/22 13:50:10;;;;;;;14.20;9.90;;;;;;;;;;5028629;28;20105;-52
2023/11/22 13:52:36;;;;;;;14.00;9.88;;;;;;;;;;5012246;28;20064;-47
2023/11/22 13:55:06;;;;;;;14.13;10.20;;;;;;;;;;5011921;28;20029;-49
2023/11/22 13:57:32;;;;;;;13.90;9.52;;;;;;;;;;5029437;28;20399;-51
2023/11/22 13:59:58;;;;;;;16.52;9.85;;;;;;;;;;5029093;28;20025;-50
2023/11/22 14:02:24;;;;;;;13.88;9.48;;;;;;;;;;5028702;28;20087;-48
2023/11/22 14:04:52;;;;;;;13.98;9.57;;;;;;;;;;5028906;28;20108;-51
2023/11/22 14:07:18;;;;;;;13.83;9.30;;;;;;;;;;5029206;28;20022;-50
2023/11/22 14:09:46;;;;;;;13.90;9.48;;;;;;;;;;5028837;28;20703;-56
2023/11/22 14:12:13;;;;;;;19.00;9.63;;;;;;;;;;5011751;28;20441;-51
2023/11/22 14:14:39;;;;;;;13.80;9.07;;;;;;;;;;5012020;28;20119;-53
2023/11/22 14:17:05;;;;;;;13.90;9.40;;;;;;;;;;5012065;28;20033;-50
2023/11/22 14:19:31;;;;;;;13.75;9.00;;;;;;;;;;5028932;28;20488;-50
2023/11/22 14:21:57;;;;;;;13.73;9.02;;;;;;;;;;5029211;28;20136;-49
2023/11/22 14:24:23;;;;;;;13.80;9.07;;;;;;;;;;5029687;28;20053;-54
2023/11/22 14:26:51;;;;;;;13.70;9.00;;;;;;;;;;5029511;28;20033;-50
2023/11/22 14:29:17;;;;;;;13.77;9.10;;;;;;;;;;5011500;28;20492;-53
2023/11/22 14:31:44;;;;;;;14.40;10.20;;;;;;;;;;5028696;28;20041;-52
2023/11/22 14:34:12;;;;;;;13.80;9.10;;;;;;;;;;5029276;28;20510;-56